sensor_id;sensor_type;location;lat;lon;timestamp;temperature;humidity
43697;DHT22;29301;47.620;19.560;2022-07-17T00:01:28;21.50;49.10
43697;DHT22;29301;47.620;19.560;2022-07-17T00:03:53;21.50;49.20
43697;DHT22;29301;47.620;19.560;2022-07-17T00:06:19;21.50;49.40
43697;DHT22;29301;47.620;19.560;2022-07-17T00:08:45;21.40;49.40
43697;DHT22;29301;47.620;19.560;2022-07-17T00:11:11;21.40;49.70
43697;DHT22;29301;47.620;19.560;2022-07-17T00:13:36;21.30;49.60
43697;DHT22;29301;47.620;19.560;2022-07-17T00:16:02;21.30;49.90
43697;DHT22;29301;47.620;19.560;2022-07-17T00:18:28;21.30;49.90
43697;DHT22;29301;47.620;19.560;2022-07-17T00:20:53;21.20;50.00
43697;DHT22;29301;47.620;19.560;2022-07-17T00:23:19;21.20;50.10
43697;DHT22;29301;47.620;19.560;2022-07-17T00:25:45;21.10;50.20
43697;DHT22;29301;47.620;19.560;2022-07-17T00:28:12;21.00;50.40
43697;DHT22;29301;47.620;19.560;2022-07-17T00:30:37;20.90;50.60
43697;DHT22;29301;47.620;19.560;2022-07-17T00:33:03;20.90;50.70
43697;DHT22;29301;47.620;19.560;2022-07-17T00:35:29;20.70;50.80
43697;DHT22;29301;47.620;19.560;2022-07-17T00:37:55;20.80;50.90
43697;DHT22;29301;47.620;19.560;2022-07-17T00:40:22;20.70;50.90
43697;DHT22;29301;47.620;19.560;2022-07-17T00:42:49;20.60;51.00
43697;DHT22;29301;47.620;19.560;2022-07-17T00:45:16;20.60;51.10
43697;DHT22;29301;47.620;19.560;2022-07-17T00:50:23;20.50;51.30
43697;DHT22;29301;47.620;19.560;2022-07-17T00:52:49;20.60;51.50
43697;DHT22;29301;47.620;19.560;2022-07-17T00:55:16;20.60;51.50
43697;DHT22;29301;47.620;19.560;2022-07-17T00:57:46;20.40;51.40
43697;DHT22;29301;47.620;19.560;2022-07-17T01:00:12;20.20;51.60
43697;DHT22;29301;47.620;19.560;2022-07-17T01:02:38;20.10;51.70
43697;DHT22;29301;47.620;19.560;2022-07-17T01:05:05;20.10;52.00
43697;DHT22;29301;47.620;19.560;2022-07-17T01:07:32;20.00;52.00
43697;DHT22;29301;47.620;19.560;2022-07-17T01:09:57;20.00;52.20
43697;DHT22;29301;47.620;19.560;2022-07-17T01:12:24;20.00;52.30
43697;DHT22;29301;47.620;19.560;2022-07-17T01:14:51;19.90;52.20
43697;DHT22;29301;47.620;19.560;2022-07-17T01:17:17;19.80;52.20
43697;DHT22;29301;47.620;19.560;2022-07-17T01:19:43;19.80;52.20
43697;DHT22;29301;47.620;19.560;2022-07-17T01:22:09;19.80;52.30
43697;DHT22;29301;47.620;19.560;2022-07-17T01:24:39;19.70;52.40
43697;DHT22;29301;47.620;19.560;2022-07-17T01:27:05;19.70;52.50
43697;DHT22;29301;47.620;19.560;2022-07-17T01:29:30;19.70;52.50
43697;DHT22;29301;47.620;19.560;2022-07-17T01:31:56;19.70;52.60
43697;DHT22;29301;47.620;19.560;2022-07-17T01:34:22;19.60;52.50
43697;DHT22;29301;47.620;19.560;2022-07-17T01:36:47;19.50;52.60
43697;DHT22;29301;47.620;19.560;2022-07-17T01:39:13;19.40;52.70
43697;DHT22;29301;47.620;19.560;2022-07-17T01:41:39;19.40;52.80
43697;DHT22;29301;47.620;19.560;2022-07-17T01:44:05;19.30;52.90
43697;DHT22;29301;47.620;19.560;2022-07-17T01:46:33;19.30;52.90
43697;DHT22;29301;47.620;19.560;2022-07-17T01:48:59;19.30;52.90
43697;DHT22;29301;47.620;19.560;2022-07-17T01:51:27;19.30;53.00
43697;DHT22;29301;47.620;19.560;2022-07-17T01:53:53;19.20;53.00
43697;DHT22;29301;47.620;19.560;2022-07-17T01:56:18;19.20;53.00
43697;DHT22;29301;47.620;19.560;2022-07-17T01:58:44;19.20;53.00
43697;DHT22;29301;47.620;19.560;2022-07-17T02:01:10;19.20;52.90
43697;DHT22;29301;47.620;19.560;2022-07-17T02:03:36;19.00;53.00
43697;DHT22;29301;47.620;19.560;2022-07-17T02:06:02;18.90;53.40
43697;DHT22;29301;47.620;19.560;2022-07-17T02:08:27;18.70;53.70
43697;DHT22;29301;47.620;19.560;2022-07-17T02:10:53;18.70;53.90
43697;DHT22;29301;47.620;19.560;2022-07-17T02:13:19;18.50;54.00
43697;DHT22;29301;47.620;19.560;2022-07-17T02:15:44;18.20;54.50
43697;DHT22;29301;47.620;19.560;2022-07-17T02:18:10;18.10;54.80
43697;DHT22;29301;47.620;19.560;2022-07-17T02:20:36;17.90;55.30
43697;DHT22;29301;47.620;19.560;2022-07-17T02:23:01;17.70;55.50
43697;DHT22;29301;47.620;19.560;2022-07-17T02:25:27;17.80;55.90
43697;DHT22;29301;47.620;19.560;2022-07-17T02:27:53;17.80;55.90
43697;DHT22;29301;47.620;19.560;2022-07-17T02:30:19;17.90;55.70
43697;DHT22;29301;47.620;19.560;2022-07-17T02:32:45;18.10;55.60
43697;DHT22;29301;47.620;19.560;2022-07-17T02:35:11;18.30;55.30
43697;DHT22;29301;47.620;19.560;2022-07-17T02:37:39;18.40;55.10
43697;DHT22;29301;47.620;19.560;2022-07-17T02:40:07;18.40;54.90
43697;DHT22;29301;47.620;19.560;2022-07-17T02:42:33;18.40;54.80
43697;DHT22;29301;47.620;19.560;2022-07-17T02:44:59;18.40;54.70
43697;DHT22;29301;47.620;19.560;2022-07-17T02:47:29;18.50;54.60
43697;DHT22;29301;47.620;19.560;2022-07-17T02:49:56;18.50;54.40
43697;DHT22;29301;47.620;19.560;2022-07-17T02:52:22;18.60;54.30
43697;DHT22;29301;47.620;19.560;2022-07-17T02:54:48;18.60;54.20
43697;DHT22;29301;47.620;19.560;2022-07-17T02:57:14;18.50;54.20
43697;DHT22;29301;47.620;19.560;2022-07-17T02:59:40;18.50;54.20
43697;DHT22;29301;47.620;19.560;2022-07-17T03:02:06;18.50;54.30
43697;DHT22;29301;47.620;19.560;2022-07-17T03:04:32;18.40;54.40
43697;DHT22;29301;47.620;19.560;2022-07-17T03:06:58;18.40;54.50
43697;DHT22;29301;47.620;19.560;2022-07-17T03:09:23;18.30;54.50
43697;DHT22;29301;47.620;19.560;2022-07-17T03:11:49;18.20;54.70
43697;DHT22;29301;47.620;19.560;2022-07-17T03:14:15;18.20;54.80
43697;DHT22;29301;47.620;19.560;2022-07-17T03:16:41;18.30;55.20
43697;DHT22;29301;47.620;19.560;2022-07-17T03:19:06;18.20;55.40
43697;DHT22;29301;47.620;19.560;2022-07-17T03:21:32;18.10;55.70
43697;DHT22;29301;47.620;19.560;2022-07-17T03:23:57;18.10;55.90
43697;DHT22;29301;47.620;19.560;2022-07-17T03:26:23;18.00;56.20
43697;DHT22;29301;47.620;19.560;2022-07-17T03:28:49;17.90;56.50
43697;DHT22;29301;47.620;19.560;2022-07-17T03:31:14;17.70;56.50
43697;DHT22;29301;47.620;19.560;2022-07-17T03:33:40;17.80;57.10
43697;DHT22;29301;47.620;19.560;2022-07-17T03:36:06;17.80;57.20
43697;DHT22;29301;47.620;19.560;2022-07-17T03:38:32;17.80;57.00
43697;DHT22;29301;47.620;19.560;2022-07-17T03:40:58;17.90;56.80
43697;DHT22;29301;47.620;19.560;2022-07-17T03:43:24;17.90;56.90
43697;DHT22;29301;47.620;19.560;2022-07-17T03:45:49;17.80;57.10
43697;DHT22;29301;47.620;19.560;2022-07-17T03:48:15;17.80;57.20
43697;DHT22;29301;47.620;19.560;2022-07-17T03:50:42;17.70;57.50
43697;DHT22;29301;47.620;19.560;2022-07-17T03:53:07;17.70;57.70
43697;DHT22;29301;47.620;19.560;2022-07-17T03:55:33;17.70;57.70
43697;DHT22;29301;47.620;19.560;2022-07-17T03:57:59;17.70;57.70
43697;DHT22;29301;47.620;19.560;2022-07-17T04:00:25;17.90;57.50
43697;DHT22;29301;47.620;19.560;2022-07-17T04:02:51;17.90;57.80
43697;DHT22;29301;47.620;19.560;2022-07-17T04:05:17;18.00;58.10
43697;DHT22;29301;47.620;19.560;2022-07-17T04:07:43;18.00;58.00
43697;DHT22;29301;47.620;19.560;2022-07-17T04:10:12;18.00;57.80
43697;DHT22;29301;47.620;19.560;2022-07-17T04:12:38;18.00;57.70
43697;DHT22;29301;47.620;19.560;2022-07-17T04:15:05;18.00;57.70
43697;DHT22;29301;47.620;19.560;2022-07-17T04:17:31;18.00;57.80
43697;DHT22;29301;47.620;19.560;2022-07-17T04:19:56;18.00;57.90
43697;DHT22;29301;47.620;19.560;2022-07-17T04:22:22;17.90;58.10
43697;DHT22;29301;47.620;19.560;2022-07-17T04:24:48;17.90;58.20
43697;DHT22;29301;47.620;19.560;2022-07-17T04:27:14;17.90;58.40
43697;DHT22;29301;47.620;19.560;2022-07-17T04:29:39;18.00;58.30
43697;DHT22;29301;47.620;19.560;2022-07-17T04:32:06;18.00;58.40
43697;DHT22;29301;47.620;19.560;2022-07-17T04:34:32;18.10;59.20
43697;DHT22;29301;47.620;19.560;2022-07-17T04:36:59;18.10;60.00
43697;DHT22;29301;47.620;19.560;2022-07-17T04:39:25;18.10;60.50
43697;DHT22;29301;47.620;19.560;2022-07-17T04:41:51;18.10;60.40
43697;DHT22;29301;47.620;19.560;2022-07-17T04:44:17;18.20;60.40
43697;DHT22;29301;47.620;19.560;2022-07-17T04:46:43;18.20;60.20
43697;DHT22;29301;47.620;19.560;2022-07-17T04:49:09;18.20;60.30
43697;DHT22;29301;47.620;19.560;2022-07-17T04:51:34;18.20;60.00
43697;DHT22;29301;47.620;19.560;2022-07-17T04:54:00;18.30;60.00
43697;DHT22;29301;47.620;19.560;2022-07-17T04:56:26;18.20;59.90
43697;DHT22;29301;47.620;19.560;2022-07-17T04:58:52;18.30;59.80
43697;DHT22;29301;47.620;19.560;2022-07-17T05:01:18;18.40;60.00
43697;DHT22;29301;47.620;19.560;2022-07-17T05:03:44;18.40;60.30
43697;DHT22;29301;47.620;19.560;2022-07-17T05:06:10;18.40;60.50
43697;DHT22;29301;47.620;19.560;2022-07-17T05:08:36;18.50;60.40
43697;DHT22;29301;47.620;19.560;2022-07-17T05:11:02;18.50;59.70
43697;DHT22;29301;47.620;19.560;2022-07-17T05:13:28;18.60;59.50
43697;DHT22;29301;47.620;19.560;2022-07-17T05:15:54;18.70;58.40
43697;DHT22;29301;47.620;19.560;2022-07-17T05:18:20;18.80;57.90
43697;DHT22;29301;47.620;19.560;2022-07-17T05:20:45;18.80;57.60
43697;DHT22;29301;47.620;19.560;2022-07-17T05:23:11;18.90;57.50
43697;DHT22;29301;47.620;19.560;2022-07-17T05:25:37;19.00;57.30
43697;DHT22;29301;47.620;19.560;2022-07-17T05:28:03;19.00;57.00
43697;DHT22;29301;47.620;19.560;2022-07-17T05:30:29;19.10;56.90
43697;DHT22;29301;47.620;19.560;2022-07-17T05:32:55;19.20;56.70
43697;DHT22;29301;47.620;19.560;2022-07-17T05:35:21;19.30;56.50
43697;DHT22;29301;47.620;19.560;2022-07-17T05:37:46;19.30;56.20
43697;DHT22;29301;47.620;19.560;2022-07-17T05:40:12;19.40;56.10
43697;DHT22;29301;47.620;19.560;2022-07-17T05:42:38;19.50;55.80
43697;DHT22;29301;47.620;19.560;2022-07-17T05:45:04;19.50;55.40
43697;DHT22;29301;47.620;19.560;2022-07-17T05:47:30;19.60;54.90
43697;DHT22;29301;47.620;19.560;2022-07-17T05:49:56;19.60;54.50
43697;DHT22;29301;47.620;19.560;2022-07-17T05:52:22;19.70;54.30
43697;DHT22;29301;47.620;19.560;2022-07-17T05:54:47;19.80;54.40
43697;DHT22;29301;47.620;19.560;2022-07-17T05:57:13;20.00;54.10
43697;DHT22;29301;47.620;19.560;2022-07-17T05:59:39;20.00;53.80
43697;DHT22;29301;47.620;19.560;2022-07-17T06:02:05;20.20;53.70
43697;DHT22;29301;47.620;19.560;2022-07-17T06:04:31;20.30;53.30
43697;DHT22;29301;47.620;19.560;2022-07-17T06:06:57;20.40;53.00
43697;DHT22;29301;47.620;19.560;2022-07-17T06:09:22;20.50;52.70
43697;DHT22;29301;47.620;19.560;2022-07-17T06:11:48;20.50;52.50
43697;DHT22;29301;47.620;19.560;2022-07-17T06:14:14;20.70;52.10
43697;DHT22;29301;47.620;19.560;2022-07-17T06:16:40;20.80;51.40
43697;DHT22;29301;47.620;19.560;2022-07-17T06:19:05;20.90;51.00
43697;DHT22;29301;47.620;19.560;2022-07-17T06:21:31;21.00;50.90
43697;DHT22;29301;47.620;19.560;2022-07-17T06:23:57;21.20;50.80
43697;DHT22;29301;47.620;19.560;2022-07-17T06:26:23;21.40;50.30
43697;DHT22;29301;47.620;19.560;2022-07-17T06:28:49;21.60;49.90
43697;DHT22;29301;47.620;19.560;2022-07-17T06:31:15;21.70;49.40
43697;DHT22;29301;47.620;19.560;2022-07-17T06:33:40;21.80;48.80
43697;DHT22;29301;47.620;19.560;2022-07-17T06:36:06;22.00;48.80
43697;DHT22;29301;47.620;19.560;2022-07-17T06:38:33;22.10;48.30
43697;DHT22;29301;47.620;19.560;2022-07-17T06:41:00;22.30;48.00
43697;DHT22;29301;47.620;19.560;2022-07-17T06:43:25;22.40;47.30
43697;DHT22;29301;47.620;19.560;2022-07-17T06:45:51;22.50;46.90
43697;DHT22;29301;47.620;19.560;2022-07-17T06:48:20;22.60;46.90
43697;DHT22;29301;47.620;19.560;2022-07-17T06:50:46;22.80;46.90
43697;DHT22;29301;47.620;19.560;2022-07-17T06:53:13;23.10;46.70
43697;DHT22;29301;47.620;19.560;2022-07-17T06:55:38;23.30;46.20
43697;DHT22;29301;47.620;19.560;2022-07-17T06:58:06;23.50;46.00
43697;DHT22;29301;47.620;19.560;2022-07-17T07:00:32;23.70;45.90
43697;DHT22;29301;47.620;19.560;2022-07-17T07:02:58;23.80;45.20
43697;DHT22;29301;47.620;19.560;2022-07-17T07:05:24;23.80;45.00
43697;DHT22;29301;47.620;19.560;2022-07-17T07:07:50;23.80;45.10
43697;DHT22;29301;47.620;19.560;2022-07-17T07:10:15;24.00;44.60
43697;DHT22;29301;47.620;19.560;2022-07-17T07:12:41;24.10;44.30
43697;DHT22;29301;47.620;19.560;2022-07-17T07:15:07;24.30;44.30
43697;DHT22;29301;47.620;19.560;2022-07-17T07:17:34;24.50;44.00
43697;DHT22;29301;47.620;19.560;2022-07-17T07:20:02;24.70;43.80
43697;DHT22;29301;47.620;19.560;2022-07-17T07:22:29;24.90;43.70
43697;DHT22;29301;47.620;19.560;2022-07-17T07:24:55;24.90;43.40
43697;DHT22;29301;47.620;19.560;2022-07-17T07:27:20;25.10;43.30
43697;DHT22;29301;47.620;19.560;2022-07-17T07:29:46;25.20;42.80
43697;DHT22;29301;47.620;19.560;2022-07-17T07:32:12;25.30;42.30
43697;DHT22;29301;47.620;19.560;2022-07-17T07:34:37;25.30;42.20
43697;DHT22;29301;47.620;19.560;2022-07-17T07:37:03;25.40;42.00
43697;DHT22;29301;47.620;19.560;2022-07-17T07:39:29;25.40;41.50
43697;DHT22;29301;47.620;19.560;2022-07-17T07:41:54;25.30;41.40
43697;DHT22;29301;47.620;19.560;2022-07-17T07:44:20;25.30;41.70
43697;DHT22;29301;47.620;19.560;2022-07-17T07:46:46;25.50;41.30
43697;DHT22;29301;47.620;19.560;2022-07-17T07:49:12;25.70;41.80
43697;DHT22;29301;47.620;19.560;2022-07-17T07:51:37;26.10;41.70
43697;DHT22;29301;47.620;19.560;2022-07-17T07:54:03;26.30;40.60
43697;DHT22;29301;47.620;19.560;2022-07-17T07:56:29;26.00;40.20
43697;DHT22;29301;47.620;19.560;2022-07-17T07:58:54;26.00;40.30
43697;DHT22;29301;47.620;19.560;2022-07-17T08:01:20;25.80;40.20
43697;DHT22;29301;47.620;19.560;2022-07-17T08:03:46;26.10;40.20
43697;DHT22;29301;47.620;19.560;2022-07-17T08:06:11;26.10;39.80
43697;DHT22;29301;47.620;19.560;2022-07-17T08:08:40;26.30;39.80
43697;DHT22;29301;47.620;19.560;2022-07-17T08:11:06;26.60;39.70
43697;DHT22;29301;47.620;19.560;2022-07-17T08:13:31;26.70;38.70
43697;DHT22;29301;47.620;19.560;2022-07-17T08:15:57;26.50;38.30
43697;DHT22;29301;47.620;19.560;2022-07-17T08:18:24;26.40;38.50
43697;DHT22;29301;47.620;19.560;2022-07-17T08:20:51;26.50;38.90
43697;DHT22;29301;47.620;19.560;2022-07-17T08:23:17;26.70;38.70
43697;DHT22;29301;47.620;19.560;2022-07-17T08:25:43;26.70;37.90
43697;DHT22;29301;47.620;19.560;2022-07-17T08:28:09;26.80;37.80
43697;DHT22;29301;47.620;19.560;2022-07-17T08:30:35;26.70;38.30
43697;DHT22;29301;47.620;19.560;2022-07-17T08:33:06;27.00;38.50
43697;DHT22;29301;47.620;19.560;2022-07-17T08:35:33;27.00;38.00
43697;DHT22;29301;47.620;19.560;2022-07-17T08:37:59;27.20;37.90
43697;DHT22;29301;47.620;19.560;2022-07-17T08:40:34;27.40;37.90
43697;DHT22;29301;47.620;19.560;2022-07-17T08:43:01;27.20;37.80
43697;DHT22;29301;47.620;19.560;2022-07-17T08:45:28;27.40;38.70
43697;DHT22;29301;47.620;19.560;2022-07-17T08:47:55;27.60;38.40
43697;DHT22;29301;47.620;19.560;2022-07-17T08:50:29;27.50;38.00
43697;DHT22;29301;47.620;19.560;2022-07-17T08:52:55;27.70;38.80
43697;DHT22;29301;47.620;19.560;2022-07-17T08:55:21;27.70;38.10
43697;DHT22;29301;47.620;19.560;2022-07-17T08:57:47;27.60;38.10
43697;DHT22;29301;47.620;19.560;2022-07-17T09:00:15;27.60;37.90
43697;DHT22;29301;47.620;19.560;2022-07-17T09:05:27;27.60;37.60
43697;DHT22;29301;47.620;19.560;2022-07-17T09:07:53;27.80;37.90
43697;DHT22;29301;47.620;19.560;2022-07-17T09:10:18;28.10;37.90
43697;DHT22;29301;47.620;19.560;2022-07-17T09:12:54;28.40;37.60
43697;DHT22;29301;47.620;19.560;2022-07-17T09:15:20;28.30;36.70
43697;DHT22;29301;47.620;19.560;2022-07-17T09:17:54;28.10;36.70
43697;DHT22;29301;47.620;19.560;2022-07-17T09:20:21;28.20;36.40
43697;DHT22;29301;47.620;19.560;2022-07-17T09:23:17;28.20;36.50
43697;DHT22;29301;47.620;19.560;2022-07-17T09:25:45;28.40;36.60
43697;DHT22;29301;47.620;19.560;2022-07-17T09:28:13;28.60;36.20
43697;DHT22;29301;47.620;19.560;2022-07-17T09:30:48;28.70;36.00
43697;DHT22;29301;47.620;19.560;2022-07-17T09:33:17;28.70;36.40
43697;DHT22;29301;47.620;19.560;2022-07-17T09:35:52;28.70;36.20
43697;DHT22;29301;47.620;19.560;2022-07-17T09:41:05;28.80;35.90
43697;DHT22;29301;47.620;19.560;2022-07-17T09:43:39;28.50;36.00
43697;DHT22;29301;47.620;19.560;2022-07-17T09:46:06;28.50;36.60
43697;DHT22;29301;47.620;19.560;2022-07-17T09:48:32;28.80;36.10
43697;DHT22;29301;47.620;19.560;2022-07-17T09:50:58;29.10;36.20
43697;DHT22;29301;47.620;19.560;2022-07-17T09:53:24;29.30;35.70
43697;DHT22;29301;47.620;19.560;2022-07-17T09:55:51;29.30;35.50
43697;DHT22;29301;47.620;19.560;2022-07-17T09:58:23;29.30;35.50
43697;DHT22;29301;47.620;19.560;2022-07-17T10:00:50;29.20;35.20
43697;DHT22;29301;47.620;19.560;2022-07-17T10:03:19;29.20;35.10
43697;DHT22;29301;47.620;19.560;2022-07-17T10:05:45;29.10;35.40
43697;DHT22;29301;47.620;19.560;2022-07-17T10:08:12;29.00;35.30
43697;DHT22;29301;47.620;19.560;2022-07-17T10:10:38;29.20;36.30
43697;DHT22;29301;47.620;19.560;2022-07-17T10:13:04;29.50;36.40
43697;DHT22;29301;47.620;19.560;2022-07-17T10:15:30;29.90;36.20
43697;DHT22;29301;47.620;19.560;2022-07-17T10:18:06;29.80;35.40
43697;DHT22;29301;47.620;19.560;2022-07-17T10:20:32;29.50;35.20
43697;DHT22;29301;47.620;19.560;2022-07-17T10:22:58;29.50;34.60
43697;DHT22;29301;47.620;19.560;2022-07-17T10:25:24;29.20;34.80
43697;DHT22;29301;47.620;19.560;2022-07-17T10:27:54;29.00;35.30
43697;DHT22;29301;47.620;19.560;2022-07-17T10:30:28;29.20;35.60
43697;DHT22;29301;47.620;19.560;2022-07-17T10:32:59;29.40;35.60
43697;DHT22;29301;47.620;19.560;2022-07-17T10:35:26;29.60;35.70
43697;DHT22;29301;47.620;19.560;2022-07-17T10:37:56;29.70;36.00
43697;DHT22;29301;47.620;19.560;2022-07-17T10:40:27;29.40;35.50
43697;DHT22;29301;47.620;19.560;2022-07-17T10:43:01;29.20;35.40
43697;DHT22;29301;47.620;19.560;2022-07-17T10:45:41;29.10;35.40
43697;DHT22;29301;47.620;19.560;2022-07-17T10:50:40;29.60;35.90
43697;DHT22;29301;47.620;19.560;2022-07-17T10:55:39;30.10;34.40
43697;DHT22;29301;47.620;19.560;2022-07-17T10:58:36;30.10;34.90
43697;DHT22;29301;47.620;19.560;2022-07-17T11:01:20;30.00;34.20
43697;DHT22;29301;47.620;19.560;2022-07-17T11:06:17;29.90;34.00
43697;DHT22;29301;47.620;19.560;2022-07-17T11:11:12;29.20;34.20
43697;DHT22;29301;47.620;19.560;2022-07-17T11:13:38;29.10;34.10
43697;DHT22;29301;47.620;19.560;2022-07-17T11:16:04;29.30;34.00
43697;DHT22;29301;47.620;19.560;2022-07-17T11:18:30;29.60;34.00
43697;DHT22;29301;47.620;19.560;2022-07-17T11:20:57;29.70;33.70
43697;DHT22;29301;47.620;19.560;2022-07-17T11:23:26;29.70;33.50
43697;DHT22;29301;47.620;19.560;2022-07-17T11:26:03;29.80;33.90
43697;DHT22;29301;47.620;19.560;2022-07-17T11:30:57;30.10;33.90
43697;DHT22;29301;47.620;19.560;2022-07-17T11:33:22;30.00;34.00
43697;DHT22;29301;47.620;19.560;2022-07-17T11:35:48;29.90;33.50
43697;DHT22;29301;47.620;19.560;2022-07-17T11:38:14;30.00;33.90
43697;DHT22;29301;47.620;19.560;2022-07-17T11:40:48;30.00;33.80
43697;DHT22;29301;47.620;19.560;2022-07-17T11:43:14;29.80;33.40
43697;DHT22;29301;47.620;19.560;2022-07-17T11:45:41;29.80;33.40
43697;DHT22;29301;47.620;19.560;2022-07-17T11:48:07;30.00;33.60
43697;DHT22;29301;47.620;19.560;2022-07-17T11:50:33;30.00;33.30
43697;DHT22;29301;47.620;19.560;2022-07-17T11:53:04;29.90;33.40
43697;DHT22;29301;47.620;19.560;2022-07-17T11:55:42;29.80;33.70
43697;DHT22;29301;47.620;19.560;2022-07-17T11:58:08;29.60;33.30
43697;DHT22;29301;47.620;19.560;2022-07-17T12:00:34;29.50;33.10
43697;DHT22;29301;47.620;19.560;2022-07-17T12:03:05;29.40;33.00
43697;DHT22;29301;47.620;19.560;2022-07-17T12:05:33;29.60;32.50
43697;DHT22;29301;47.620;19.560;2022-07-17T12:08:00;29.70;32.50
43697;DHT22;29301;47.620;19.560;2022-07-17T12:10:28;30.00;32.30
43697;DHT22;29301;47.620;19.560;2022-07-17T12:15:42;29.90;32.20
43697;DHT22;29301;47.620;19.560;2022-07-17T12:18:29;29.80;32.20
43697;DHT22;29301;47.620;19.560;2022-07-17T12:21:01;29.80;32.40
43697;DHT22;29301;47.620;19.560;2022-07-17T12:23:33;29.70;32.30
43697;DHT22;29301;47.620;19.560;2022-07-17T12:26:14;29.60;32.70
43697;DHT22;29301;47.620;19.560;2022-07-17T12:28:42;29.70;32.90
43697;DHT22;29301;47.620;19.560;2022-07-17T12:31:08;29.80;32.90
43697;DHT22;29301;47.620;19.560;2022-07-17T12:33:34;29.60;32.80
43697;DHT22;29301;47.620;19.560;2022-07-17T12:36:00;29.50;32.90
43697;DHT22;29301;47.620;19.560;2022-07-17T12:38:26;29.40;32.70
43697;DHT22;29301;47.620;19.560;2022-07-17T12:40:51;29.50;33.10
43697;DHT22;29301;47.620;19.560;2022-07-17T12:43:17;29.70;33.00
43697;DHT22;29301;47.620;19.560;2022-07-17T12:45:43;29.80;33.00
43697;DHT22;29301;47.620;19.560;2022-07-17T12:48:09;29.90;32.90
43697;DHT22;29301;47.620;19.560;2022-07-17T12:50:34;29.60;32.50
43697;DHT22;29301;47.620;19.560;2022-07-17T12:53:00;29.60;32.70
43697;DHT22;29301;47.620;19.560;2022-07-17T12:55:26;29.70;32.60
43697;DHT22;29301;47.620;19.560;2022-07-17T12:57:52;29.60;32.30
43697;DHT22;29301;47.620;19.560;2022-07-17T13:00:17;29.50;32.30
43697;DHT22;29301;47.620;19.560;2022-07-17T13:02:43;29.40;32.40
43697;DHT22;29301;47.620;19.560;2022-07-17T13:05:09;29.40;32.40
43697;DHT22;29301;47.620;19.560;2022-07-17T13:07:34;29.40;32.30
43697;DHT22;29301;47.620;19.560;2022-07-17T13:10:00;29.40;32.20
43697;DHT22;29301;47.620;19.560;2022-07-17T13:12:26;29.60;32.20
43697;DHT22;29301;47.620;19.560;2022-07-17T13:14:52;29.70;31.60
43697;DHT22;29301;47.620;19.560;2022-07-17T13:17:18;30.00;31.90
43697;DHT22;29301;47.620;19.560;2022-07-17T13:19:44;29.80;31.70
43697;DHT22;29301;47.620;19.560;2022-07-17T13:22:09;29.70;31.80
43697;DHT22;29301;47.620;19.560;2022-07-17T13:24:35;29.70;31.70
43697;DHT22;29301;47.620;19.560;2022-07-17T13:27:01;29.30;31.70
43697;DHT22;29301;47.620;19.560;2022-07-17T13:29:26;29.50;31.80
43697;DHT22;29301;47.620;19.560;2022-07-17T13:31:53;29.60;31.80
43697;DHT22;29301;47.620;19.560;2022-07-17T13:34:20;29.60;31.80
43697;DHT22;29301;47.620;19.560;2022-07-17T13:36:45;29.70;31.40
43697;DHT22;29301;47.620;19.560;2022-07-17T13:39:12;29.90;31.80
43697;DHT22;29301;47.620;19.560;2022-07-17T13:41:38;30.00;31.60
43697;DHT22;29301;47.620;19.560;2022-07-17T13:44:05;30.10;31.60
43697;DHT22;29301;47.620;19.560;2022-07-17T13:46:31;30.20;31.40
43697;DHT22;29301;47.620;19.560;2022-07-17T13:48:56;30.30;31.40
43697;DHT22;29301;47.620;19.560;2022-07-17T13:51:22;29.90;31.40
43697;DHT22;29301;47.620;19.560;2022-07-17T13:53:48;29.70;31.40
43697;DHT22;29301;47.620;19.560;2022-07-17T13:56:14;29.70;31.60
43697;DHT22;29301;47.620;19.560;2022-07-17T13:58:40;29.70;31.60
43697;DHT22;29301;47.620;19.560;2022-07-17T14:01:06;29.50;31.30
43697;DHT22;29301;47.620;19.560;2022-07-17T14:03:31;29.40;31.60
43697;DHT22;29301;47.620;19.560;2022-07-17T14:05:57;29.50;31.90
43697;DHT22;29301;47.620;19.560;2022-07-17T14:08:24;29.60;31.20
43697;DHT22;29301;47.620;19.560;2022-07-17T14:10:50;29.60;31.00
43697;DHT22;29301;47.620;19.560;2022-07-17T14:13:15;29.80;31.40
43697;DHT22;29301;47.620;19.560;2022-07-17T14:15:41;30.00;31.10
43697;DHT22;29301;47.620;19.560;2022-07-17T14:18:07;30.00;31.00
43697;DHT22;29301;47.620;19.560;2022-07-17T14:20:33;29.90;31.00
43697;DHT22;29301;47.620;19.560;2022-07-17T14:22:59;30.00;31.30
43697;DHT22;29301;47.620;19.560;2022-07-17T14:25:24;29.80;31.20
43697;DHT22;29301;47.620;19.560;2022-07-17T14:27:50;29.80;31.20
43697;DHT22;29301;47.620;19.560;2022-07-17T14:30:16;29.70;31.30
43697;DHT22;29301;47.620;19.560;2022-07-17T14:32:42;29.70;31.60
43697;DHT22;29301;47.620;19.560;2022-07-17T14:35:08;29.40;31.60
43697;DHT22;29301;47.620;19.560;2022-07-17T14:37:34;29.40;31.60
43697;DHT22;29301;47.620;19.560;2022-07-17T14:40:00;29.30;31.60
43697;DHT22;29301;47.620;19.560;2022-07-17T14:42:27;29.30;31.60
43697;DHT22;29301;47.620;19.560;2022-07-17T14:44:52;29.40;31.50
43697;DHT22;29301;47.620;19.560;2022-07-17T14:47:18;29.50;31.60
43697;DHT22;29301;47.620;19.560;2022-07-17T14:49:44;29.60;31.50
43697;DHT22;29301;47.620;19.560;2022-07-17T14:52:10;29.70;31.00
43697;DHT22;29301;47.620;19.560;2022-07-17T14:54:36;29.60;30.70
43697;DHT22;29301;47.620;19.560;2022-07-17T14:57:02;29.50;30.70
43697;DHT22;29301;47.620;19.560;2022-07-17T14:59:29;29.60;31.20
43697;DHT22;29301;47.620;19.560;2022-07-17T15:01:54;29.50;31.20
43697;DHT22;29301;47.620;19.560;2022-07-17T15:04:20;29.40;31.30
43697;DHT22;29301;47.620;19.560;2022-07-17T15:06:46;29.30;31.40
43697;DHT22;29301;47.620;19.560;2022-07-17T15:09:12;29.20;31.40
43697;DHT22;29301;47.620;19.560;2022-07-17T15:11:38;29.20;31.60
43697;DHT22;29301;47.620;19.560;2022-07-17T15:14:04;29.30;32.20
43697;DHT22;29301;47.620;19.560;2022-07-17T15:16:30;29.30;31.70
43697;DHT22;29301;47.620;19.560;2022-07-17T15:18:57;29.20;31.40
43697;DHT22;29301;47.620;19.560;2022-07-17T15:21:23;29.10;31.50
43697;DHT22;29301;47.620;19.560;2022-07-17T15:23:49;29.20;31.60
43697;DHT22;29301;47.620;19.560;2022-07-17T15:26:14;29.30;31.80
43697;DHT22;29301;47.620;19.560;2022-07-17T15:28:40;29.40;31.80
43697;DHT22;29301;47.620;19.560;2022-07-17T15:31:06;29.50;31.60
43697;DHT22;29301;47.620;19.560;2022-07-17T15:33:32;29.40;31.80
43697;DHT22;29301;47.620;19.560;2022-07-17T15:36:01;29.40;32.30